Time;durP1;ratioP1;P1;durP2;ratioP2;P2;SDS_P1;SDS_P2;PMS_P1;PMS_P2;Temp;Humidity;BMP_temperature;BMP_pressure;BME280_temperature;BME280_humidity;BME280_pressure;Samples;Min_cycle;Max_cycle;Signal;HPM_P1;HPM_P2
2023/07/21 00:00:03;;;;;;;;;1.75;1.75;;;;;22.81;42.89;100882.81;4979315;28;45407;-70
2023/07/21 00:02:38;;;;;;;;;2.00;1.00;;;;;22.98;42.16;100905.94;4981990;28;45838;-70
2023/07/21 00:05:04;;;;;;;;;1.00;1.00;;;;;22.84;42.29;100888.88;4961402;28;45515;-70
2023/07/21 00:07:35;;;;;;;;;1.25;1.00;;;;;22.72;41.51;100866.25;4988753;28;45410;-69
2023/07/21 00:10:07;;;;;;;;;1.00;1.00;;;;;22.94;41.91;100903.47;4979353;28;45432;-70
2023/07/21 00:12:37;;;;;;;;;2.00;1.00;;;;;22.72;41.83;100874.44;4988797;28;46549;-70
2023/07/21 00:15:04;;;;;;;;;1.00;1.00;;;;;22.84;42.49;100891.59;4985130;28;45455;-70
2023/07/21 00:17:30;;;;;;;;;2.50;1.50;;;;;22.59;42.09;100857.38;4983188;28;45559;-71
2023/07/21 00:20:03;;;;;;;;;1.50;1.00;;;;;22.72;42.30;100881.69;4989632;28;45491;-70
2023/07/21 00:22:36;;;;;;;;;1.25;1.25;;;;;22.56;42.53;100855.75;4971339;28;46678;-70
2023/07/21 00:25:05;;;;;;;;;1.50;1.00;;;;;22.57;42.20;100845.75;4987567;28;45310;-70
2023/07/21 00:27:35;;;;;;;;;3.00;2.00;;;;;22.79;42.16;100876.63;4982320;28;45386;-70
2023/07/21 00:30:01;;;;;;;;;1.00;0.75;;;;;22.65;42.53;100856.84;4964580;28;45726;-70
2023/07/21 00:32:26;;;;;;;;;2.00;2.00;;;;;22.90;42.73;100892.94;4984258;28;45483;-70
2023/07/21 00:34:54;;;;;;;;;1.00;1.00;;;;;22.69;42.94;100850.19;4964695;28;45921;-70
2023/07/21 00:37:19;;;;;;;;;1.00;1.00;;;;;22.80;42.54;100876.50;5007406;28;45277;-70
2023/07/21 00:39:47;;;;;;;;;2.00;2.00;;;;;22.67;42.65;100863.06;4978118;28;45432;-70
2023/07/21 00:42:13;;;;;;;;;1.00;1.00;;;;;22.84;42.84;100902.50;4994026;28;46251;-70
2023/07/21 00:44:48;;;;;;;;;1.00;1.00;;;;;22.72;42.73;100893.47;4994106;28;45500;-70
2023/07/21 00:47:14;;;;;;;;;0.75;0.75;;;;;22.73;42.77;100894.31;4982127;28;45401;-70
2023/07/21 00:49:41;;;;;;;;;1.00;0.00;;;;;22.67;43.03;100875.78;4981714;28;45507;-70
2023/07/21 00:52:19;;;;;;;;;1.00;1.00;;;;;22.78;42.40;100894.81;4964152;28;45710;-70
2023/07/21 00:54:45;;;;;;;;;1.25;1.25;;;;;22.66;42.73;100866.75;4981785;28;45603;-70
2023/07/21 00:57:15;;;;;;;;;3.00;2.00;;;;;22.69;42.92;100865.66;4982044;28;45465;-70
2023/07/21 00:59:47;;;;;;;;;2.00;2.00;;;;;22.80;43.13;100891.97;4987261;28;45535;-70
2023/07/21 01:02:20;;;;;;;;;1.00;1.00;;;;;22.70;43.65;100878.25;4996600;28;46208;-70
2023/07/21 01:04:46;;;;;;;;;2.00;2.00;;;;;22.51;43.57;100849.81;4975324;28;45435;-70
2023/07/21 01:07:17;;;;;;;;;1.75;1.75;;;;;22.56;44.20;100861.19;4973123;28;45571;-70
2023/07/21 01:09:45;;;;;;;;;1.00;1.00;;;;;22.62;45.21;100878.88;4964117;28;45535;-70
2023/07/21 01:12:13;;;;;;;;;2.00;2.00;;;;;22.56;44.98;100869.34;4983200;28;45341;-70
2023/07/21 01:14:41;;;;;;;;;2.00;2.00;;;;;22.44;45.67;100861.34;4985165;28;45389;-70
2023/07/21 01:17:08;;;;;;;;;1.00;1.00;;;;;22.39;45.98;100856.25;4979976;28;45472;-70
2023/07/21 01:19:36;;;;;;;;;3.25;2.00;;;;;22.49;46.42;100867.28;4999901;28;45312;-70
2023/07/21 01:22:09;;;;;;;;;3.00;2.00;;;;;22.60;46.11;100888.16;4983575;28;45484;-70
2023/07/21 01:25:05;;;;;;;;;2.00;2.00;;;;;22.42;45.94;100866.91;4981359;28;45343;-70
2023/07/21 01:27:39;;;;;;;;;2.00;2.00;;;;;22.28;45.98;100842.63;4991822;28;45461;-70
2023/07/21 01:30:08;;;;;;;;;2.00;2.00;;;;;22.19;46.14;100839.66;4963591;28;45529;-70
2023/07/21 01:32:35;;;;;;;;;2.00;2.00;;;;;22.60;45.92;100904.47;4975282;28;47473;-70
2023/07/21 01:35:02;;;;;;;;;1.50;1.50;;;;;22.34;45.51;100877.53;4982798;28;45606;-70
2023/07/21 01:37:35;;;;;;;;;0.75;0.75;;;;;22.58;45.74;100910.03;4992924;28;45326;-71
2023/07/21 01:40:06;;;;;;;;;2.00;2.00;;;;;22.43;45.64;100876.78;4975222;28;46023;-71
2023/07/21 01:42:35;;;;;;;;;2.25;1.50;;;;;22.39;45.99;100887.03;4970210;28;47470;-70
2023/07/21 01:45:06;;;;;;;;;1.00;1.00;;;;;22.41;46.19;100888.78;4982215;28;45721;-70
2023/07/21 01:47:33;;;;;;;;;2.75;2.00;;;;;22.28;46.74;100872.53;4963402;28;45417;-70
2023/07/21 01:49:59;;;;;;;;;2.50;1.75;;;;;22.45;46.65;100890.25;4980636;28;45420;-71
2023/07/21 01:52:32;;;;;;;;;2.50;1.00;;;;;22.19;47.42;100850.53;4990327;28;45510;-70
2023/07/21 01:55:18;;;;;;;;;3.00;2.00;;;;;22.16;47.19;100852.63;4976559;28;45515;-70
2023/07/21 01:57:56;;;;;;;;;2.00;2.00;;;;;22.29;47.16;100877.03;4980924;28;45459;-70
2023/07/21 02:00:32;;;;;;;;;2.00;2.00;;;;;21.98;47.37;100831.34;4981068;28;45352;-70
2023/07/21 02:03:00;;;;;;;;;2.75;2.00;;;;;22.17;47.51;100867.97;4975500;28;47481;-70
2023/07/21 02:05:27;;;;;;;;;3.00;2.00;;;;;21.91;47.47;100823.81;4982551;28;46556;-71
2023/07/21 02:07:55;;;;;;;;;1.25;1.25;;;;;21.99;47.85;100843.09;4991431;28;45508;-70
2023/07/21 02:10:23;;;;;;;;;1.00;1.00;;;;;22.07;47.90;100856.94;4991631;28;45432;-70
2023/07/21 02:12:48;;;;;;;;;1.75;1.75;;;;;21.86;47.86;100826.88;4980671;28;45391;-70
2023/07/21 02:15:16;;;;;;;;;2.00;1.00;;;;;21.96;47.53;100855.06;4993414;28;45591;-70
2023/07/21 02:17:41;;;;;;;;;1.50;1.50;;;;;21.90;47.49;100839.25;4982645;28;45414;-70
2023/07/21 02:20:10;;;;;;;;;1.00;1.00;;;;;21.90;47.23;100849.25;4982239;28;45446;-70
2023/07/21 02:22:37;;;;;;;;;2.25;2.00;;;;;21.77;47.04;100831.19;5000124;28;45452;-71
2023/07/21 02:25:04;;;;;;;;;2.00;2.00;;;;;21.79;47.08;100834.66;4986186;28;45309;-71
2023/07/21 02:27:29;;;;;;;;;3.25;2.00;;;;;21.78;47.57;100840.19;4980737;28;45797;-70
2023/07/21 02:30:00;;;;;;;;;2.00;2.00;;;;;21.76;47.79;100828.59;4962680;28;45338;-70
2023/07/21 02:32:25;;;;;;;;;1.50;1.50;;;;;21.92;47.31;100858.13;4962346;28;46510;-71
2023/07/21 02:34:58;;;;;;;;;2.00;2.00;;;;;21.75;47.46;100840.44;4979230;28;45449;-70
2023/07/21 02:37:25;;;;;;;;;1.50;1.50;;;;;21.68;47.35;100837.34;4974296;28;45490;-71
2023/07/21 02:40:01;;;;;;;;;2.00;2.00;;;;;21.57;47.34;100821.88;4992011;28;45481;-70
2023/07/21 02:42:26;;;;;;;;;1.75;1.75;;;;;21.70;47.70;100854.41;4980213;28;46402;-71
2023/07/21 02:45:01;;;;;;;;;;;;;;;;;;;;;
2023/07/21 02:47:27;;;;;;;;;1.00;1.00;;;;;21.54;47.27;100838.41;4979202;28;68674;-70
2023/07/21 02:49:53;;;;;;;;;2.00;2.00;;;;;21.53;47.31;100836.66;4979716;28;45335;-70
2023/07/21 02:52:18;;;;;;;;;1.00;1.00;;;;;21.50;47.46;100836.03;4980017;28;45600;-71
2023/07/21 02:54:51;;;;;;;;;1.00;1.00;;;;;21.48;47.67;100832.59;4979959;28;45471;-71
2023/07/21 02:57:16;;;;;;;;;1.25;1.25;;;;;21.64;48.00;100863.88;4980288;28;45468;-70
2023/07/21 02:59:51;;;;;;;;;1.00;1.00;;;;;21.44;47.79;100838.22;4985104;28;45657;-71
2023/07/21 03:02:17;;;;;;;;;1.25;1.25;;;;;21.58;47.57;100866.19;4987257;28;45647;-70
2023/07/21 03:04:45;;;;;;;;;2.00;1.75;;;;;21.46;47.93;100847.09;4970169;28;45510;-71
2023/07/21 03:07:11;;;;;;;;;2.50;2.00;;;;;21.46;47.84;100838.94;4997482;28;45469;-70
2023/07/21 03:09:37;;;;;;;;;1.75;1.75;;;;;21.43;47.49;100830.19;4999094;28;45351;-71
2023/07/21 03:12:02;;;;;;;;;2.00;1.00;;;;;21.41;47.44;100835.72;4979524;28;45882;-70
2023/07/21 03:14:30;;;;;;;;;2.00;2.00;;;;;21.34;47.66;100817.31;4980692;28;45524;-71
2023/07/21 03:16:58;;;;;;;;;2.00;2.00;;;;;21.37;48.17;100836.97;4999245;28;45463;-71
2023/07/21 03:19:24;;;;;;;;;2.00;2.00;;;;;21.36;48.10;100839.78;4981389;28;45587;-71
2023/07/21 03:21:50;;;;;;;;;2.00;2.00;;;;;21.32;48.60;100833.72;4998914;28;45439;-71
2023/07/21 03:24:15;;;;;;;;;1.00;1.00;;;;;21.34;48.36;100837.19;4981567;28;45728;-71
2023/07/21 03:26:41;;;;;;;;;2.00;2.00;;;;;21.16;48.39;100822.31;4981510;28;45422;-71
2023/07/21 03:29:06;;;;;;;;;1.00;1.00;;;;;21.12;48.73;100827.09;4999100;28;45243;-70
2023/07/21 03:31:32;;;;;;;;;2.25;2.25;;;;;21.22;48.99;100844.41;4979796;28;47754;-70
2023/07/21 03:34:00;;;;;;;;;2.00;2.00;;;;;21.22;48.96;100839.00;4998695;28;45503;-71
2023/07/21 03:36:25;;;;;;;;;1.00;1.00;;;;;21.28;48.65;100845.78;4998610;28;45569;-71
2023/07/21 03:38:53;;;;;;;;;1.50;1.50;;;;;21.34;48.79;100849.91;5003627;28;45391;-71
2023/07/21 03:41:26;;;;;;;;;1.25;1.00;;;;;21.25;48.27;100833.34;4999106;28;46440;-71
2023/07/21 03:43:54;;;;;;;;;2.00;2.00;;;;;21.23;48.68;100834.41;4998005;28;45527;-71
2023/07/21 03:46:22;;;;;;;;;1.00;1.00;;;;;21.33;48.47;100849.03;4998009;28;45322;-71
2023/07/21 03:48:47;;;;;;;;;1.00;1.00;;;;;21.18;48.13;100809.47;4998390;28;45600;-71
2023/07/21 03:51:13;;;;;;;;;1.50;1.00;;;;;21.25;48.43;100838.75;4998815;28;46049;-71
2023/07/21 03:53:41;;;;;;;;;1.00;1.00;;;;;21.26;48.17;100840.47;4998480;28;45381;-71
2023/07/21 03:56:07;;;;;;;;;2.00;2.00;;;;;21.25;48.61;100851.44;4997707;28;45579;-71
2023/07/21 03:58:33;;;;;;;;;2.00;2.00;;;;;21.31;49.00;100864.56;4998714;28;45338;-70
2023/07/21 04:00:59;;;;;;;;;3.00;1.50;;;;;21.25;48.52;100852.34;4997339;28;47346;-71
2023/07/21 04:03:27;;;;;;;;;1.75;1.75;;;;;21.05;48.81;100815.84;4990071;28;45403;-70
2023/07/21 04:05:52;;;;;;;;;2.00;1.50;;;;;21.01;48.79;100822.47;4961423;28;45531;-71
2023/07/21 04:08:19;;;;;;;;;1.00;1.00;;;;;21.23;48.87;100865.16;4989447;28;45324;-70
2023/07/21 04:10:45;;;;;;;;;1.50;1.50;;;;;21.30;49.25;100879.16;4982911;28;45648;-71
2023/07/21 04:13:10;;;;;;;;;0.00;0.00;;;;;21.20;49.06;100869.94;4961005;28;45481;-70
2023/07/21 04:15:39;;;;;;;;;2.00;2.00;;;;;20.95;49.37;100831.09;4978986;28;45396;-71
2023/07/21 04:18:04;;;;;;;;;1.00;1.00;;;;;21.01;49.52;100846.03;4961455;28;45810;-71
2023/07/21 04:20:31;;;;;;;;;0.75;0.75;;;;;21.21;49.21;100885.25;4961157;28;46453;-71
2023/07/21 04:22:56;;;;;;;;;1.75;1.75;;;;;21.01;49.67;100859.59;4978961;28;45572;-70
2023/07/21 04:25:32;;;;;;;;;1.00;1.00;;;;;21.17;49.47;100887.34;4979061;28;45544;-71
2023/07/21 04:27:59;;;;;;;;;3.00;1.00;;;;;20.99;49.67;100848.00;4979002;28;45326;-71
2023/07/21 04:30:27;;;;;;;;;3.00;2.00;;;;;21.08;49.56;100860.88;4960946;28;46094;-70
2023/07/21 04:32:53;;;;;;;;;1.00;1.00;;;;;21.23;49.56;100892.31;4995709;28;45422;-70
2023/07/21 04:35:18;;;;;;;;;1.25;1.25;;;;;21.02;50.13;100855.91;4984034;28;45330;-71
2023/07/21 04:37:46;;;;;;;;;3.50;2.25;;;;;21.01;50.35;100854.19;4969399;28;45348;-70
2023/07/21 04:40:17;;;;;;;;;2.00;1.50;;;;;21.09;49.95;100870.75;4989360;28;46272;-70
2023/07/21 04:42:45;;;;;;;;;2.00;2.00;;;;;21.20;49.68;100884.41;4978730;28;45546;-70
2023/07/21 04:45:13;;;;;;;;;1.75;1.75;;;;;21.22;49.43;100882.44;4978723;28;45482;-70
2023/07/21 04:47:42;;;;;;;;;2.00;2.00;;;;;21.27;50.21;100891.09;4964011;28;45579;-71
2023/07/21 04:50:09;;;;;;;;;2.00;2.00;;;;;21.08;50.47;100867.19;4989775;28;46046;-70
2023/07/21 04:52:36;;;;;;;;;1.25;1.25;;;;;21.18;50.67;100875.47;4960885;28;46122;-71
2023/07/21 04:55:14;;;;;;;;;;;;;;;;;;;;;
2023/07/21 04:57:42;;;;;;;;;2.00;2.00;;;;;21.17;51.53;100883.75;4980666;28;72859;-70
2023/07/21 05:00:11;;;;;;;;;1.00;1.00;;;;;20.70;51.09;100813.91;4966097;28;47769;-70
2023/07/21 05:02:37;;;;;;;;;1.75;1.75;;;;;21.01;51.16;100867.75;4999879;28;45608;-70
2023/07/21 05:05:03;;;;;;;;;2.75;1.25;;;;;20.79;51.60;100834.06;4964046;28;45477;-71
2023/07/21 05:07:29;;;;;;;;;2.00;2.00;;;;;21.05;51.16;100871.97;4974524;28;45377;-70
2023/07/21 05:09:55;;;;;;;;;1.00;1.00;;;;;20.84;51.07;100839.16;4985757;28;45720;-71
2023/07/21 05:12:24;;;;;;;;;3.00;2.00;;;;;20.76;50.96;100834.28;4996780;28;45398;-71
2023/07/21 05:14:49;;;;;;;;;1.00;1.00;;;;;20.87;50.52;100841.66;4981970;28;45366;-71
2023/07/21 05:17:16;;;;;;;;;1.00;1.00;;;;;20.91;51.00;100857.59;4967217;28;45586;-70
2023/07/21 05:19:44;;;;;;;;;1.00;1.00;;;;;21.04;51.27;100876.50;4981020;28;45723;-71
2023/07/21 05:22:15;;;;;;;;;1.00;1.00;;;;;20.96;50.58;100859.09;4981358;28;45648;-70
2023/07/21 05:24:41;;;;;;;;;1.00;0.00;;;;;20.92;50.68;100858.44;4981532;28;45359;-70
2023/07/21 05:27:17;;;;;;;;;;;;;;;;;;;;;
2023/07/21 05:29:43;;;;;;;;;3.75;2.00;;;;;21.01;50.53;100865.88;4979821;28;74263;-71
2023/07/21 05:32:11;;;;;;;;;1.00;1.00;;;;;20.88;51.00;100849.69;4977974;28;45672;-70
2023/07/21 05:34:38;;;;;;;;;0.75;0.75;;;;;20.87;51.05;100857.91;4986593;28;45372;-71
2023/07/21 05:37:05;;;;;;;;;1.00;1.00;;;;;20.94;50.51;100861.91;4993879;28;45362;-70
2023/07/21 05:39:31;;;;;;;;;1.00;1.00;;;;;20.90;50.70;100855.00;4990968;28;45514;-70
2023/07/21 05:41:59;;;;;;;;;2.00;2.00;;;;;20.84;50.22;100837.28;4981994;28;45506;-70
2023/07/21 05:44:26;;;;;;;;;1.00;1.00;;;;;20.71;50.37;100818.38;4981259;28;45395;-70
2023/07/21 05:46:52;;;;;;;;;2.00;2.00;;;;;20.83;50.46;100835.59;4981020;28;45521;-70
2023/07/21 05:49:17;;;;;;;;;2.00;2.00;;;;;20.78;50.40;100834.16;4978807;28;47343;-70
2023/07/21 05:51:43;;;;;;;;;4.25;2.75;;;;;21.05;50.56;100875.56;4969250;28;45421;-70
2023/07/21 05:54:09;;;;;;;;;3.00;2.00;;;;;21.01;51.64;100865.03;5000124;28;45478;-80
2023/07/21 05:56:38;;;;;;;;;3.00;3.00;;;;;20.83;51.84;100829.28;4976097;28;45494;-71
2023/07/21 05:59:06;;;;;;;;;2.00;2.00;;;;;21.03;51.73;100865.78;4990054;28;46138;-71
2023/07/21 06:01:44;;;;;;;;;;;;;;;;;;;;;
2023/07/21 06:04:19;;;;;;;;;4.00;3.00;;;;;20.86;51.08;100845.31;4997854;28;67940;-70
2023/07/21 06:06:47;;;;;;;;;2.25;2.25;;;;;20.89;51.43;100855.97;4998057;28;47302;-70
2023/07/21 06:09:13;;;;;;;;;3.75;2.00;;;;;20.83;51.63;100837.41;4995429;28;47314;-70
2023/07/21 06:11:38;;;;;;;;;2.75;2.75;;;;;21.07;51.38;100868.16;4981887;28;45547;-70
2023/07/21 06:14:06;;;;;;;;;3.00;2.00;;;;;20.89;52.18;100861.38;4997434;28;45330;-70
2023/07/21 06:16:32;;;;;;;;;1.50;1.50;;;;;20.85;51.79;100866.16;4973662;28;45931;-70
2023/07/21 06:19:00;;;;;;;;;1.00;1.00;;;;;20.84;51.21;100858.16;4988454;28;45546;-71
2023/07/21 06:21:26;;;;;;;;;1.75;1.00;;;;;20.80;50.83;100841.22;4972900;28;45777;-70
2023/07/21 06:23:53;;;;;;;;;2.00;1.75;;;;;20.91;50.71;100868.44;4996576;28;45340;-70
2023/07/21 06:27:25;;;;;;;;;3.75;2.00;;;;;20.87;50.18;100875.06;4986260;28;45523;-73
2023/07/21 06:29:51;;;;;;;;;2.00;2.00;;;;;20.90;50.24;100885.69;4975810;28;46999;-71
2023/07/21 06:32:24;;;;;;;;;2.00;1.00;;;;;21.02;50.21;100897.47;4993394;28;45674;-71
2023/07/21 06:35:09;;;;;;;;;;;;;;;;;;;;;
2023/07/21 06:37:38;;;;;;;;;2.00;2.00;;;;;20.97;50.07;100891.53;4990116;28;71722;-71
2023/07/21 06:40:09;;;;;;;;;1.00;1.00;;;;;20.90;50.38;100872.13;4980512;28;47230;-72
2023/07/21 06:42:37;;;;;;;;;2.75;2.25;;;;;20.75;50.22;100853.38;4978485;28;45802;-71
2023/07/21 06:45:03;;;;;;;;;3.75;3.25;;;;;20.66;50.23;100849.50;4977599;28;45495;-71
2023/07/21 06:47:28;;;;;;;;;5.00;3.00;;;;;20.83;49.90;100876.28;4996091;28;45734;-72
2023/07/21 06:49:54;;;;;;;;;2.00;2.00;;;;;20.96;50.11;100888.94;4995379;28;45455;-70
2023/07/21 06:52:19;;;;;;;;;2.25;2.00;;;;;20.61;49.51;100833.53;4977307;28;45687;-70
2023/07/21 06:54:45;;;;;;;;;3.25;3.25;;;;;20.96;49.81;100892.50;4991014;28;45408;-67
2023/07/21 06:57:12;;;;;;;;;3.50;3.25;;;;;21.00;50.12;100904.88;4995337;28;45544;-71
2023/07/21 06:59:38;;;;;;;;;3.00;3.00;;;;;20.75;49.85;100866.94;4970269;28;46152;-70
2023/07/21 07:02:04;;;;;;;;;3.50;2.00;;;;;20.70;49.82;100857.31;4970736;28;45623;-69
2023/07/21 07:04:29;;;;;;;;;3.50;3.50;;;;;20.82;49.95;100876.38;4997081;28;45330;-69
2023/07/21 07:06:55;;;;;;;;;4.00;4.00;;;;;20.81;50.67;100874.63;4974458;28;45628;-69
2023/07/21 07:09:24;;;;;;;;;3.25;3.00;;;;;20.84;50.62;100874.44;4987115;28;45625;-70
2023/07/21 07:11:51;;;;;;;;;4.50;2.50;;;;;20.99;50.46;100903.13;4977137;28;45893;-70
2023/07/21 07:14:16;;;;;;;;;3.00;2.50;;;;;20.96;50.45;100886.22;4978121;28;45495;-69
2023/07/21 07:16:42;;;;;;;;;3.25;3.00;;;;;21.03;50.47;100903.75;4983491;28;45663;-70
2023/07/21 07:19:07;;;;;;;;;2.25;2.25;;;;;20.77;50.02;100863.16;4975108;28;47347;-69
2023/07/21 07:21:33;;;;;;;;;2.50;2.50;;;;;20.78;50.19;100862.19;4968755;28;45456;-66
2023/07/21 07:23:58;;;;;;;;;1.50;1.50;;;;;20.84;50.21;100871.72;4990498;28;45545;-68
2023/07/21 07:26:24;;;;;;;;;2.75;2.75;;;;;21.07;50.57;100910.72;4997074;28;45494;-68
2023/07/21 07:28:49;;;;;;;;;3.00;3.00;;;;;20.99;50.41;100897.72;4994158;28;46169;-68
2023/07/21 07:31:14;;;;;;;;;2.75;2.75;;;;;20.81;50.79;100861.06;4987631;28;45442;-68
2023/07/21 07:33:40;;;;;;;;;2.00;2.00;;;;;21.04;50.77;100905.50;4966357;28;45343;-68
2023/07/21 07:36:06;;;;;;;;;2.25;2.25;;;;;20.97;51.16;100893.38;4993708;28;45388;-68
2023/07/21 07:38:32;;;;;;;;;5.50;2.75;;;;;21.02;50.64;100913.75;4978756;28;47090;-67
2023/07/21 07:41:05;;;;;;;;;2.50;2.50;;;;;20.78;51.04;100883.00;4993669;28;45682;-69
2023/07/21 07:43:32;;;;;;;;;5.00;2.00;;;;;21.00;50.62;100920.28;4997164;28;45623;-68
2023/07/21 07:45:58;;;;;;;;;4.00;4.00;;;;;20.92;50.22;100910.00;4993812;28;47315;-68
2023/07/21 07:48:24;;;;;;;;;2.00;2.00;;;;;20.88;49.84;100905.75;4996860;28;45595;-68
2023/07/21 07:50:51;;;;;;;;;5.00;3.75;;;;;20.94;50.64;100920.75;4978989;28;45628;-66
2023/07/21 07:53:17;;;;;;;;;3.00;2.50;;;;;20.80;50.55;100909.06;4996531;28;45612;-69
2023/07/21 07:55:44;;;;;;;;;2.50;2.50;;;;;20.74;51.55;100904.06;4977713;28;46297;-67
2023/07/21 07:58:10;;;;;;;;;5.25;3.50;;;;;20.83;51.70;100916.09;4984115;28;46642;-68
2023/07/21 08:00:38;;;;;;;;;2.50;2.50;;;;;20.65;52.31;100883.06;4976408;28;45456;-68
2023/07/21 08:03:07;;;;;;;;;4.00;3.00;;;;;20.81;51.50;100904.47;4991674;28;45660;-67
2023/07/21 08:05:35;;;;;;;;;3.00;3.00;;;;;20.92;51.74;100919.00;4993943;28;45590;-68
2023/07/21 08:08:02;;;;;;;;;4.00;4.00;;;;;21.02;51.68;100930.03;4987477;28;45653;-67
2023/07/21 08:10:32;;;;;;;;;3.25;2.25;;;;;21.03;51.56;100912.81;4979134;28;46029;-67
2023/07/21 08:12:59;;;;;;;;;4.00;4.00;;;;;20.92;51.67;100891.00;4970640;28;45510;-68
2023/07/21 08:15:25;;;;;;;;;5.00;3.75;;;;;20.98;52.32;100896.00;4995485;28;45383;-68
2023/07/21 08:17:51;;;;;;;;;3.00;3.00;;;;;21.07;51.89;100911.56;4949417;28;47038;-67
2023/07/21 08:20:18;;;;;;;;;3.75;2.75;;;;;21.28;51.68;100941.69;4963631;28;46279;-68
2023/07/21 08:22:51;;;;;;;;;3.25;3.25;;;;;21.13;52.07;100909.38;4977912;28;45832;-68
2023/07/21 08:25:17;;;;;;;;;3.00;3.00;;;;;21.13;51.81;100903.97;4982214;28;45323;-68
2023/07/21 08:27:43;;;;;;;;;3.00;3.00;;;;;21.16;52.07;100904.59;4987588;28;45668;-68
2023/07/21 08:30:08;;;;;;;;;4.75;4.00;;;;;21.36;52.04;100932.97;5007069;28;45418;-68
2023/07/21 08:32:38;;;;;;;;;3.00;3.00;;;;;21.38;51.14;100924.72;4981721;28;45474;-67
2023/07/21 08:35:05;;;;;;;;;3.00;3.00;;;;;21.27;52.15;100904.66;4991766;28;45434;-67
2023/07/21 08:37:31;;;;;;;;;4.00;4.00;;;;;21.37;52.13;100921.13;4996573;28;46257;-67
2023/07/21 08:39:57;;;;;;;;;3.00;3.00;;;;;21.52;51.57;100939.97;4989779;28;45609;-67
2023/07/21 08:42:24;;;;;;;;;3.00;3.00;;;;;21.50;52.27;100929.28;4987154;28;45435;-67
2023/07/21 08:44:53;;;;;;;;;2.00;2.00;;;;;21.38;52.13;100914.69;4964590;28;45774;-67
2023/07/21 08:47:23;;;;;;;;;3.25;3.25;;;;;21.29;51.59;100890.97;4975515;28;47379;-68
2023/07/21 08:49:49;;;;;;;;;3.50;3.50;;;;;21.55;51.65;100921.63;4979795;28;45465;-68
2023/07/21 08:52:15;;;;;;;;;3.00;3.00;;;;;21.63;51.43;100931.91;4978317;28;45588;-68
2023/07/21 08:54:43;;;;;;;;;5.00;3.25;;;;;21.53;51.35;100901.00;4981285;28;45520;-67
2023/07/21 08:57:10;;;;;;;;;3.75;3.75;;;;;21.50;51.73;100909.38;4999094;28;46762;-67
2023/07/21 08:59:35;;;;;;;;;3.25;2.75;;;;;21.49;52.08;100908.50;4999610;28;45863;-67
2023/07/21 09:02:01;;;;;;;;;4.00;4.00;;;;;21.68;52.28;100932.41;4991445;28;45631;-67
2023/07/21 09:04:26;;;;;;;;;3.75;3.00;;;;;21.60;52.00;100905.84;4997696;28;45432;-67
2023/07/21 09:06:54;;;;;;;;;4.00;4.00;;;;;21.78;51.38;100936.16;4996524;28;46105;-67
2023/07/21 09:09:20;;;;;;;;;4.00;4.00;;;;;21.79;51.90;100928.88;4997714;28;45657;-67
2023/07/21 09:11:47;;;;;;;;;2.00;2.00;;;;;21.81;52.15;100919.63;4998413;28;45570;-67
2023/07/21 09:14:13;;;;;;;;;3.75;3.00;;;;;21.96;51.27;100943.88;4997810;28;45514;-67
2023/07/21 09:16:39;;;;;;;;;3.75;3.75;;;;;21.94;51.62;100932.28;4980199;28;48217;-68
2023/07/21 09:19:05;;;;;;;;;2.75;2.75;;;;;21.97;51.59;100932.91;4980876;28;45861;-66
2023/07/21 09:21:31;;;;;;;;;4.00;4.00;;;;;22.05;50.98;100937.72;4995899;28;45589;-67
2023/07/21 09:24:06;;;;;;;;;9.00;6.00;;;;;22.01;51.00;100917.22;4995363;28;45448;-66
2023/07/21 09:26:32;;;;;;;;;3.75;3.75;;;;;22.09;51.10;100932.94;4997948;28;45332;-67
2023/07/21 09:28:58;;;;;;;;;6.75;4.50;;;;;22.11;51.46;100934.53;4999543;28;45740;-67
2023/07/21 09:31:28;;;;;;;;;4.00;4.00;;;;;22.15;51.48;100937.88;4971528;28;45420;-67
2023/07/21 09:33:54;;;;;;;;;3.50;3.50;;;;;22.10;51.67;100929.22;4989606;28;46568;-67
2023/07/21 09:36:22;;;;;;;;;4.25;4.25;;;;;22.17;50.94;100935.94;4997163;28;45753;-67
2023/07/21 09:38:48;;;;;;;;;4.00;4.00;;;;;22.20;50.56;100936.56;4996429;28;45936;-67
2023/07/21 09:41:15;;;;;;;;;3.00;3.00;;;;;22.19;50.29;100923.06;4996450;28;45442;-67
2023/07/21 09:43:42;;;;;;;;;6.75;5.50;;;;;22.21;51.06;100919.22;4996722;28;45378;-67
2023/07/21 09:46:09;;;;;;;;;4.00;4.00;;;;;22.33;50.76;100933.75;4998238;28;45359;-67
2023/07/21 09:48:36;;;;;;;;;4.75;3.75;;;;;22.25;50.85;100925.28;4950876;28;1193844;-67
2023/07/21 09:51:05;;;;;;;;;4.50;4.00;;;;;22.39;50.39;100935.13;4977770;28;45637;-67
2023/07/21 09:53:38;;;;;;;;;4.25;4.25;;;;;22.44;49.56;100932.06;4972328;28;45488;-67
2023/07/21 09:56:05;;;;;;;;;1.00;1.00;;;;;22.47;50.04;100929.94;4990093;28;46189;-67
2023/07/21 09:58:34;;;;;;;;;3.50;3.50;;;;;22.55;49.22;100943.81;4988009;28;45596;-66
2023/07/21 10:01:04;;;;;;;;;6.00;5.25;;;;;22.55;49.37;100930.22;4996882;28;47006;-67
2023/07/21 10:03:31;;;;;;;;;4.25;4.25;;;;;22.57;49.50;100939.09;4998697;28;45562;-67
2023/07/21 10:05:58;;;;;;;;;6.50;4.00;;;;;22.61;49.60;100941.59;4979606;28;46592;-67
2023/07/21 10:08:24;;;;;;;;;3.00;3.00;;;;;22.55;49.44;100924.75;4997429;28;47045;-67
2023/07/21 10:10:50;;;;;;;;;4.25;4.25;;;;;22.55;49.25;100919.31;4997542;28;45385;-67
2023/07/21 10:13:15;;;;;;;;;4.75;4.75;;;;;22.74;49.73;100945.91;4999092;28;45315;-67
2023/07/21 10:15:46;;;;;;;;;4.25;4.25;;;;;22.80;48.98;100951.84;4998448;28;45638;-66
2023/07/21 10:18:14;;;;;;;;;8.00;5.75;;;;;22.88;48.77;100949.38;4999286;28;45671;-67
2023/07/21 10:21:04;;;;;;;;;5.25;5.00;;;;;22.90;48.22;100942.81;4994730;28;45599;-77
2023/07/21 10:23:34;;;;;;;;;4.25;4.25;;;;;22.93;48.12;100939.81;4982324;28;45529;-74
2023/07/21 10:26:01;;;;;;;;;6.50;6.50;;;;;22.97;47.91;100945.03;4981260;28;46436;-75
2023/07/21 10:28:30;;;;;;;;;6.75;6.75;;;;;22.98;47.96;100954.94;5000069;28;45528;-75
2023/07/21 10:31:21;;;;;;;;;5.75;5.75;;;;;22.98;47.09;100950.34;4979317;28;45470;-75
2023/07/21 10:34:05;;;;;;;;;6.00;5.00;;;;;23.00;46.96;100950.22;4998213;28;45314;-75
2023/07/21 10:36:52;;;;;;;;;5.25;5.25;;;;;23.01;46.90;100951.97;4986348;28;47286;-75
2023/07/21 10:39:20;;;;;;;;;5.00;4.00;;;;;23.05;46.97;100950.72;4989793;28;45667;-74
2023/07/21 10:41:55;;;;;;;;;6.00;6.00;;;;;23.08;47.19;100945.91;4999088;28;45406;-75
2023/07/21 10:44:21;;;;;;;;;5.50;5.50;;;;;22.98;46.80;100925.00;4992997;28;45758;-75
2023/07/21 10:46:49;;;;;;;;;5.00;5.00;;;;;23.00;46.57;100917.56;4987537;28;45824;-74
2023/07/21 10:49:17;;;;;;;;;5.00;5.00;;;;;23.08;46.50;100934.16;4997965;28;45350;-75
2023/07/21 10:51:47;;;;;;;;;5.75;5.75;;;;;22.92;46.10;100902.72;4996962;28;45300;-75
2023/07/21 10:54:14;;;;;;;;;5.50;5.00;;;;;23.13;46.27;100921.88;4979219;28;46036;-75
2023/07/21 10:56:41;;;;;;;;;6.75;6.00;;;;;23.00;45.74;100893.06;4997487;28;45924;-75
2023/07/21 10:59:08;;;;;;;;;4.00;4.00;;;;;23.17;45.87;100930.69;4997924;28;46338;-75
2023/07/21 11:01:39;;;;;;;;;5.50;5.00;;;;;23.09;45.20;100928.59;4978538;28;45502;-75
2023/07/21 11:04:04;;;;;;;;;4.75;4.75;;;;;23.04;45.47;100908.16;4992337;28;45353;-75
2023/07/21 11:06:29;;;;;;;;;7.50;5.25;;;;;23.23;45.46;100932.88;4977983;28;48015;-76
2023/07/21 11:08:55;;;;;;;;;6.00;5.75;;;;;23.08;45.10;100906.94;4994656;28;45488;-75
2023/07/21 11:11:21;;;;;;;;;8.25;7.25;;;;;23.12;45.48;100916.56;4994253;28;45335;-75
2023/07/21 11:13:46;;;;;;;;;4.75;4.00;;;;;23.36;45.24;100938.19;4989200;28;45341;-75
2023/07/21 11:16:12;;;;;;;;;4.00;4.00;;;;;23.17;44.94;100900.75;4987382;28;45431;-75
2023/07/21 11:18:42;;;;;;;;;4.00;4.00;;;;;23.18;45.25;100916.06;4997897;28;45357;-75
2023/07/21 11:21:08;;;;;;;;;4.00;4.00;;;;;23.31;44.45;100922.22;4997005;28;45510;-75
2023/07/21 11:23:33;;;;;;;;;4.50;4.50;;;;;23.19;44.65;100908.75;4998328;28;45394;-75
2023/07/21 11:26:10;;;;;;;;;3.00;3.00;;;;;23.30;43.95;100914.19;4997246;28;47322;-75
2023/07/21 11:28:38;;;;;;;;;1.25;0.75;;;;;23.32;43.16;100904.00;4975482;28;47139;-78
2023/07/21 11:31:12;;;;;;;;;6.50;5.00;;;;;23.34;42.49;100909.34;4999459;28;45715;-75
2023/07/21 11:33:43;;;;;;;;;6.00;5.25;;;;;23.31;42.87;100900.44;4992460;28;45505;-75
2023/07/21 11:36:12;;;;;;;;;3.00;2.50;;;;;23.47;43.14;100921.81;4993206;28;45954;-74